Time;durP1;ratioP1;P1;durP2;ratioP2;P2;SDS_P1;SDS_P2;PMS_P1;PMS_P2;Temp;Humidity;BMP_temperature;BMP_pressure;BME280_temperature;BME280_humidity;BME280_pressure;Samples;Min_cycle;Max_cycle;Signal;HPM_P1;HPM_P2
2022/10/28 00:02:16;;;;;;;58.58;35.03;;;;;;;13.48;100.00;101777.75;5109639;28;20034;-67
2022/10/28 00:04:41;;;;;;;60.92;35.45;;;;;;;13.52;100.00;101788.16;5108632;28;20170;-67
2022/10/28 00:07:06;;;;;;;59.60;36.22;;;;;;;13.46;100.00;101777.00;5109700;28;20028;-67
2022/10/28 00:09:32;;;;;;;58.20;35.67;;;;;;;13.30;100.00;101753.06;5110084;28;20043;-67
2022/10/28 00:11:57;;;;;;;63.33;37.53;;;;;;;13.51;100.00;101780.19;5109941;28;20027;-67
2022/10/28 00:14:23;;;;;;;66.05;37.58;;;;;;;13.49;100.00;101791.13;5110040;27;20107;-67
2022/10/28 00:16:49;;;;;;;61.35;37.70;;;;;;;13.47;100.00;101779.56;5109502;28;20066;-67
2022/10/28 00:19:15;;;;;;;62.38;36.05;;;;;;;13.38;100.00;101764.09;5109628;28;20040;-68
2022/10/28 00:21:42;;;;;;;60.55;35.95;;;;;;;13.52;100.00;101785.47;5108817;28;20114;-67
2022/10/28 00:24:09;;;;;;;63.65;37.78;;;;;;;13.49;100.00;101772.25;5109584;28;20028;-67
2022/10/28 00:26:36;;;;;;;63.63;37.80;;;;;;;13.48;100.00;101777.75;5109946;28;20084;-67
2022/10/28 00:29:13;;;;;;;61.15;36.55;;;;;;;13.49;100.00;101784.84;5109315;28;20072;-67
2022/10/28 00:31:40;;;;;;;62.95;36.28;;;;;;;13.48;100.00;101780.44;5109540;28;20042;-67
2022/10/28 00:34:08;;;;;;;60.83;37.20;;;;;;;13.46;100.00;101777.00;5109178;28;20038;-69
2022/10/28 00:36:36;;;;;;;66.35;37.50;;;;;;;13.44;100.00;101779.81;5109208;28;20031;-70
2022/10/28 00:39:08;;;;;;;65.65;35.97;;;;;;;13.44;100.00;101782.50;5109022;28;20027;-70
2022/10/28 00:41:36;;;;;;;65.63;37.63;;;;;;;13.42;100.00;101773.66;5108876;28;20031;-70
2022/10/28 00:44:38;;;;;;;64.97;36.65;;;;;;;13.43;100.00;101778.09;5108742;28;20034;-70
2022/10/28 00:47:11;;;;;;;65.07;37.75;;;;;;;13.32;100.00;101753.78;5108310;28;20043;-70
2022/10/28 00:49:37;;;;;;;65.05;37.05;;;;;;;13.44;100.00;101770.84;5109276;28;20729;-70
2022/10/28 00:52:15;;;;;;;66.10;36.97;;;;;;;13.36;100.00;101758.00;5108879;28;20076;-70
2022/10/28 00:54:42;;;;;;;64.70;37.00;;;;;;;13.35;100.00;101755.41;5108702;28;20039;-69
2022/10/28 00:57:13;;;;;;;68.25;36.90;;;;;;;13.23;100.00;101730.22;5108648;28;20028;-70
2022/10/28 00:59:44;;;;;;;54.33;33.58;;;;;;;13.34;100.00;101743.75;5107443;28;20683;-70
2022/10/28 01:02:10;;;;;;;53.92;31.25;;;;;;;13.46;100.00;101768.91;5108815;28;20063;-70
2022/10/28 01:04:37;;;;;;;56.97;32.60;;;;;;;13.46;100.00;101772.47;5107586;28;20524;-70
2022/10/28 01:07:02;;;;;;;58.00;33.53;;;;;;;13.37;100.00;101758.81;5108050;28;20023;-70
2022/10/28 01:09:28;;;;;;;54.17;34.40;;;;;;;13.45;100.00;101764.50;5106943;28;20100;-70
2022/10/28 01:12:07;;;;;;;56.15;33.75;;;;;;;13.45;100.00;101767.19;5108007;28;20020;-70
2022/10/28 01:14:52;;;;;;;61.30;33.95;;;;;;;13.46;100.00;101777.00;5108714;28;20069;-70
2022/10/28 01:17:23;;;;;;;54.35;32.97;;;;;;;13.45;100.00;101767.19;5108620;28;20076;-67
2022/10/28 01:20:26;;;;;;;59.28;32.70;;;;;;;13.45;100.00;101761.81;5107715;28;20031;-67
2022/10/28 01:22:51;;;;;;;54.60;31.00;;;;;;;13.45;100.00;101762.66;5107226;28;20023;-67
2022/10/28 01:25:29;;;;;;;59.63;33.25;;;;;;;13.45;100.00;101767.19;5108986;28;20030;-67
2022/10/28 01:28:03;;;;;;;56.00;31.50;;;;;;;13.44;100.00;101774.41;5106867;28;20031;-67
2022/10/28 01:30:51;;;;;;;54.40;31.10;;;;;;;13.45;100.00;101762.66;5108053;28;20030;-67
2022/10/28 01:33:25;;;;;;;52.83;30.70;;;;;;;13.45;100.00;101759.94;5106206;28;20036;-67
2022/10/28 01:36:03;;;;;;;53.05;31.23;;;;;;;13.45;100.00;101767.19;5108427;28;20390;-70
2022/10/28 01:38:41;;;;;;;54.35;30.45;;;;;;;13.42;100.00;101768.28;5106849;28;20110;-70
2022/10/28 01:41:32;;;;;;;51.35;31.88;;;;;;;13.30;100.00;101747.69;5105485;28;20047;-70
2022/10/28 01:44:00;;;;;;;50.78;30.90;;;;;;;13.39;100.00;101757.72;5106136;28;20027;-70
2022/10/28 01:46:57;;;;;;;53.75;31.67;;;;;;;13.40;100.00;101769.38;5108254;28;20368;-70
2022/10/28 01:49:30;;;;;;;54.13;31.98;;;;;;;13.40;100.00;101755.91;5108792;28;20116;-70
2022/10/28 01:52:02;;;;;;;52.55;30.15;;;;;;;13.42;100.00;101756.66;5104614;28;20055;-70
2022/10/28 01:54:30;;;;;;;55.95;32.17;;;;;;;13.43;100.00;101766.44;5106171;28;20467;-70
2022/10/28 01:56:58;;;;;;;57.45;33.33;;;;;;;13.33;100.00;101751.97;5105472;28;20047;-70
2022/10/28 01:59:27;;;;;;;57.55;33.72;;;;;;;13.33;100.00;101749.25;5107833;28;20027;-70
2022/10/28 02:01:53;;;;;;;59.90;33.40;;;;;;;13.41;100.00;101760.31;5106315;28;20035;-70
2022/10/28 02:04:19;;;;;;;55.50;31.80;;;;;;;13.42;100.00;101762.03;5108421;28;20475;-70
2022/10/28 02:06:49;;;;;;;54.10;30.63;;;;;;;13.26;100.00;101739.94;5107154;28;20080;-70
2022/10/28 02:09:35;;;;;;;50.65;30.20;;;;;;;13.39;100.00;101762.28;5107544;28;20038;-70
2022/10/28 02:12:12;;;;;;;51.60;31.63;;;;;;;13.42;100.00;101767.44;5107247;28;20794;-70
2022/10/28 02:15:06;;;;;;;51.55;29.63;;;;;;;13.39;100.00;101752.34;5106382;28;20020;-70
2022/10/28 02:18:00;;;;;;;53.75;31.08;;;;;;;13.35;100.00;101750.84;5107776;28;20019;-70
2022/10/28 02:20:50;;;;;;;56.88;29.95;;;;;;;13.35;100.00;101750.84;5107132;28;20040;-70
2022/10/28 02:23:48;;;;;;;46.90;28.58;;;;;;;13.38;100.00;101745.22;5107079;28;20110;-70
2022/10/28 02:26:23;;;;;;;47.97;29.25;;;;;;;13.29;100.00;101735.16;5106263;28;20501;-70
2022/10/28 02:29:27;;;;;;;51.50;29.42;;;;;;;13.35;100.00;101750.03;5106886;28;20032;-70
2022/10/28 02:31:56;;;;;;;52.40;27.65;;;;;;;13.32;100.00;101748.41;5061676;28;20547;-70
2022/10/28 02:34:30;;;;;;;48.80;28.45;;;;;;;13.34;100.00;101742.88;5097820;28;20043;-69
2022/10/28 02:36:58;;;;;;;46.28;26.05;;;;;;;13.23;100.00;101734.78;5102909;28;20062;-69
2022/10/28 02:39:31;;;;;;;44.88;27.15;;;;;;;13.33;100.00;101751.97;5106992;28;20031;-70
2022/10/28 02:42:05;;;;;;;46.38;28.15;;;;;;;13.23;100.00;101742.88;5106906;28;20351;-69
2022/10/28 02:44:35;;;;;;;47.00;27.52;;;;;;;13.30;100.00;101758.44;5108957;28;20501;-69
2022/10/28 02:47:07;;;;;;;49.42;27.52;;;;;;;13.34;100.00;101756.38;5110867;28;20039;-70
2022/10/28 02:49:36;;;;;;;45.03;25.92;;;;;;;13.09;100.00;101711.56;5110648;28;20043;-69
2022/10/28 02:52:04;;;;;;;44.72;26.08;;;;;;;13.27;100.00;101744.34;5110920;28;20031;-70
2022/10/28 02:54:38;;;;;;;43.65;25.60;;;;;;;13.13;100.00;101731.06;5107956;28;20478;-70
2022/10/28 02:57:12;;;;;;;42.22;25.02;;;;;;;13.27;100.00;101747.03;5110540;28;20019;-67
2022/10/28 02:59:37;;;;;;;41.22;24.38;;;;;;;13.26;100.00;101748.84;5110575;28;20027;-67
2022/10/28 03:02:03;;;;;;;40.40;24.08;;;;;;;13.26;100.00;101756.94;5110589;28;20027;-67
2022/10/28 03:04:28;;;;;;;39.05;22.80;;;;;;;13.24;100.00;101747.25;5108869;28;20053;-67
2022/10/28 03:06:54;;;;;;;36.40;22.73;;;;;;;13.26;100.00;101756.09;5110727;28;20087;-67
2022/10/28 03:09:19;;;;;;;39.38;22.88;;;;;;;13.24;100.00;101744.56;5110679;28;20792;-67
2022/10/28 03:11:45;;;;;;;37.80;22.40;;;;;;;13.22;100.00;101749.25;5110113;28;20023;-67
2022/10/28 03:14:10;;;;;;;43.15;25.80;;;;;;;13.21;100.00;101750.19;5108909;28;20123;-67
2022/10/28 03:16:35;;;;;;;42.42;24.92;;;;;;;13.21;100.00;101747.50;5109964;27;20395;-67
2022/10/28 03:19:01;;;;;;;47.28;27.73;;;;;;;13.22;100.00;101751.94;5110153;28;20084;-67
2022/10/28 03:21:26;;;;;;;50.15;28.35;;;;;;;13.19;100.00;101746.78;5108838;28;20039;-67
2022/10/28 03:23:52;;;;;;;48.95;27.70;;;;;;;13.08;100.00;101735.94;5109776;28;20023;-67
2022/10/28 03:26:17;;;;;;;52.97;28.15;;;;;;;13.02;100.00;101731.00;5110181;28;20072;-67
2022/10/28 03:28:42;;;;;;;51.35;28.40;;;;;;;13.16;100.00;101755.09;5109880;28;20043;-68
2022/10/28 03:31:08;;;;;;;51.33;28.63;;;;;;;13.13;100.00;101745.38;5110202;28;20027;-67
2022/10/28 03:33:34;;;;;;;50.83;28.95;;;;;;;13.12;100.00;101746.38;5109740;28;20034;-66
2022/10/28 03:35:59;;;;;;;52.60;28.40;;;;;;;13.12;100.00;101748.19;5109291;28;20028;-67
2022/10/28 03:38:24;;;;;;;51.08;28.90;;;;;;;13.07;100.00;101739.63;5108597;28;20056;-67
2022/10/28 03:40:50;;;;;;;50.38;27.90;;;;;;;13.06;100.00;101732.53;5109477;27;20390;-67
2022/10/28 03:43:16;;;;;;;53.33;28.20;;;;;;;13.12;100.00;101753.56;5110044;28;20031;-67
2022/10/28 03:45:42;;;;;;;54.33;28.55;;;;;;;13.12;100.00;101758.97;5109280;27;20434;-67
2022/10/28 03:48:08;;;;;;;50.72;28.67;;;;;;;13.11;100.00;101758.13;5109748;28;20038;-67
2022/10/28 03:50:33;;;;;;;46.03;26.60;;;;;;;13.15;100.00;101758.75;5109526;28;20035;-67
2022/10/28 03:52:59;;;;;;;46.97;27.05;;;;;;;13.09;100.00;101753.84;5108153;28;20023;-67
2022/10/28 03:55:24;;;;;;;53.45;26.90;;;;;;;13.16;100.00;101763.16;5108212;28;20023;-67
2022/10/28 03:57:51;;;;;;;45.85;25.80;;;;;;;13.12;100.00;101759.84;5109272;28;20046;-67
2022/10/28 04:00:16;;;;;;;47.50;26.85;;;;;;;13.13;100.00;101761.53;5107984;28;20494;-67
2022/10/28 04:02:47;;;;;;;42.90;24.08;;;;;;;13.12;100.00;101753.56;5107776;28;20034;-67
2022/10/28 04:05:13;;;;;;;42.35;23.92;;;;;;;13.12;100.00;101759.84;5109438;28;20076;-67
2022/10/28 04:07:38;;;;;;;48.65;26.15;;;;;;;13.07;100.00;101755.78;5109524;28;20429;-67
2022/10/28 04:10:04;;;;;;;42.67;24.55;;;;;;;13.10;100.00;101756.38;5109269;28;20069;-67
2022/10/28 04:12:29;;;;;;;47.03;26.70;;;;;;;13.10;100.00;101763.63;5104541;28;20072;-67
2022/10/28 04:14:55;;;;;;;48.05;25.80;;;;;;;12.89;100.00;101722.09;5108286;28;20416;-67
2022/10/28 04:17:20;;;;;;;42.40;24.00;;;;;;;13.04;100.00;101746.09;5109025;28;20027;-67
2022/10/28 04:19:46;;;;;;;43.83;24.05;;;;;;;13.12;100.00;101756.28;5108701;28;20425;-67
2022/10/28 04:22:11;;;;;;;42.92;24.73;;;;;;;13.13;100.00;101747.25;5105706;28;20058;-67
2022/10/28 04:24:37;;;;;;;44.53;23.90;;;;;;;13.08;100.00;101736.81;5107433;28;20034;-70
2022/10/28 04:27:02;;;;;;;46.13;24.38;;;;;;;13.09;100.00;101745.75;5101681;28;20319;-70
2022/10/28 04:29:28;;;;;;;42.17;23.23;;;;;;;13.03;100.00;101733.59;5098380;28;20028;-70
2022/10/28 04:31:53;;;;;;;43.53;25.25;;;;;;;13.00;100.00;101733.81;5135283;27;20019;-70
2022/10/28 04:34:18;;;;;;;44.33;24.27;;;;;;;13.04;100.00;101748.78;5107111;28;20031;-70
2022/10/28 04:36:44;;;;;;;43.80;24.17;;;;;;;13.01;100.00;101740.06;5107925;28;20056;-70
2022/10/28 04:39:09;;;;;;;42.45;24.52;;;;;;;13.04;100.00;101745.22;5111510;27;20466;-70
2022/10/28 04:41:35;;;;;;;42.33;24.92;;;;;;;13.01;100.00;101743.63;5109284;27;20042;-69
2022/10/28 04:44:00;;;;;;;42.75;24.45;;;;;;;13.01;100.00;101745.47;5107356;28;20020;-70
2022/10/28 04:46:26;;;;;;;42.35;23.55;;;;;;;13.01;100.00;101753.53;5100933;28;20093;-70
2022/10/28 04:48:51;;;;;;;39.72;22.83;;;;;;;12.95;100.00;101740.50;5103980;28;20023;-70
2022/10/28 04:51:17;;;;;;;36.53;22.25;;;;;;;12.99;100.00;101745.56;5106382;28;20027;-69
2022/10/28 04:53:42;;;;;;;34.80;20.92;;;;;;;12.97;100.00;101738.56;5106836;28;20035;-70
2022/10/28 04:56:08;;;;;;;36.72;20.88;;;;;;;12.97;100.00;101744.78;5107511;28;20810;-70
2022/10/28 04:58:34;;;;;;;32.92;20.15;;;;;;;12.93;100.00;101732.53;5107301;28;20034;-70
2022/10/28 05:01:06;;;;;;;38.88;21.40;;;;;;;12.97;100.00;101743.94;5107802;27;20024;-70
2022/10/28 05:03:32;;;;;;;40.42;23.05;;;;;;;12.94;100.00;101745.03;5105573;28;20073;-67
2022/10/28 05:05:57;;;;;;;38.88;22.65;;;;;;;12.85;100.00;101724.19;5107115;28;20019;-67
2022/10/28 05:08:23;;;;;;;37.30;22.00;;;;;;;12.97;100.00;101743.94;5108238;28;20150;-67
2022/10/28 05:10:49;;;;;;;46.05;23.63;;;;;;;12.91;100.00;101739.88;5107058;28;20036;-67
2022/10/28 05:13:16;;;;;;;41.53;24.08;;;;;;;12.97;100.00;101743.94;5107967;28;20053;-68
2022/10/28 05:15:41;;;;;;;38.40;22.40;;;;;;;12.96;100.00;101742.25;5108351;28;20039;-67
2022/10/28 05:18:07;;;;;;;44.08;23.42;;;;;;;12.91;100.00;101733.63;5108537;27;20027;-67
2022/10/28 05:20:32;;;;;;;40.55;23.17;;;;;;;12.92;100.00;101735.34;5107775;27;20039;-67
2022/10/28 05:22:58;;;;;;;42.72;23.40;;;;;;;12.92;100.00;101741.59;5111116;27;20023;-67
2022/10/28 05:25:23;;;;;;;34.50;20.48;;;;;;;12.93;100.00;101748.69;5107351;27;20065;-67
2022/10/28 05:27:49;;;;;;;38.55;21.73;;;;;;;12.88;100.00;101737.41;5107104;28;20022;-67
2022/10/28 05:30:15;;;;;;;38.42;21.65;;;;;;;12.87;100.00;101737.53;5107566;28;20034;-67
2022/10/28 05:32:41;;;;;;;38.88;21.00;;;;;;;12.88;100.00;101750.00;5105960;28;20130;-67
2022/10/28 05:35:07;;;;;;;35.92;20.80;;;;;;;12.86;100.00;101738.47;5105140;28;20458;-67
2022/10/28 05:37:32;;;;;;;32.60;20.33;;;;;;;12.88;100.00;101745.50;5107077;28;20019;-67
2022/10/28 05:39:58;;;;;;;36.03;20.35;;;;;;;12.87;100.00;101734.84;5107427;28;20068;-67
2022/10/28 05:42:23;;;;;;;33.97;20.27;;;;;;;12.77;100.00;101718.50;5107063;28;20051;-67
2022/10/28 05:44:50;;;;;;;37.35;21.50;;;;;;;12.90;100.00;101745.38;5109862;27;20059;-69
2022/10/28 05:47:15;;;;;;;38.60;20.92;;;;;;;12.88;100.00;101745.50;5100373;27;20024;-70
2022/10/28 05:49:41;;;;;;;35.47;19.67;;;;;;;12.88;100.00;101740.13;5106686;28;20092;-70
2022/10/28 05:52:06;;;;;;;27.73;17.48;;;;;;;12.89;100.00;101754.41;5106678;28;20104;-69
2022/10/28 05:54:31;;;;;;;30.80;17.75;;;;;;;12.88;100.00;101760.78;5106649;28;20023;-70
2022/10/28 05:56:57;;;;;;;27.20;16.63;;;;;;;12.82;100.00;101748.66;5106532;28;20059;-70
2022/10/28 05:59:22;;;;;;;30.90;18.00;;;;;;;12.82;100.00;101754.03;5106400;28;20031;-70
2022/10/28 06:01:48;;;;;;;31.80;18.40;;;;;;;12.80;100.00;101761.34;5106422;28;20471;-70
2022/10/28 06:04:13;;;;;;;31.00;18.08;;;;;;;12.80;100.00;101757.81;5107204;28;20027;-70
2022/10/28 06:06:39;;;;;;;34.00;18.80;;;;;;;12.80;100.00;101761.34;5104441;28;20050;-70
2022/10/28 06:09:04;;;;;;;31.65;17.50;;;;;;;12.81;100.00;101764.91;5106261;28;20023;-70
2022/10/28 06:11:29;;;;;;;37.53;20.58;;;;;;;12.70;100.00;101751.38;5105981;28;20043;-70
2022/10/28 06:13:55;;;;;;;37.55;21.38;;;;;;;12.79;100.00;101767.72;5105560;28;20026;-69
2022/10/28 06:16:20;;;;;;;34.38;19.98;;;;;;;12.80;100.00;101771.28;5105669;28;20023;-69
2022/10/28 06:18:46;;;;;;;34.38;19.38;;;;;;;12.81;100.00;101763.09;5107765;28;20027;-69
2022/10/28 06:21:12;;;;;;;32.90;19.40;;;;;;;12.79;100.00;101762.34;5111559;28;20030;-69
2022/10/28 06:23:37;;;;;;;34.22;19.63;;;;;;;12.81;100.00;101765.78;5111102;28;20023;-69
2022/10/28 06:26:04;;;;;;;34.47;19.35;;;;;;;12.65;100.00;101742.78;5110822;28;20012;-70
2022/10/28 06:28:30;;;;;;;33.13;19.05;;;;;;;12.71;100.00;101753.94;5111407;28;20142;-69
2022/10/28 06:31:08;;;;;;;36.88;18.73;;;;;;;12.83;100.00;101777.28;5110888;28;20051;-70
2022/10/28 06:33:33;;;;;;;35.17;19.58;;;;;;;12.83;100.00;101771.06;5110866;28;20024;-69
2022/10/28 06:35:59;;;;;;;29.98;17.80;;;;;;;12.83;100.00;101766.50;5107993;28;20053;-69
2022/10/28 06:38:26;;;;;;;35.85;17.63;;;;;;;12.85;100.00;101772.66;5111558;28;20081;-70
2022/10/28 06:40:52;;;;;;;31.83;18.00;;;;;;;12.71;100.00;101753.94;5110951;28;20119;-69
2022/10/28 06:43:17;;;;;;;34.53;19.10;;;;;;;12.84;100.00;101770.06;5109658;28;20102;-69
2022/10/28 06:45:45;;;;;;;33.25;18.10;;;;;;;12.77;100.00;101766.13;5110535;28;20074;-69
2022/10/28 06:48:11;;;;;;;39.33;20.48;;;;;;;12.82;100.00;101767.50;5108412;28;20119;-69
2022/10/28 06:50:37;;;;;;;33.50;19.33;;;;;;;12.89;100.00;101776.81;5110828;28;20036;-70
2022/10/28 06:53:03;;;;;;;33.42;19.58;;;;;;;12.86;100.00;101784.25;5110414;28;20099;-70
2022/10/28 06:55:29;;;;;;;39.40;19.00;;;;;;;12.83;100.00;101779.97;5110713;28;20455;-70
2022/10/28 06:57:58;;;;;;;32.05;17.88;;;;;;;12.84;100.00;101780.84;5110791;28;20035;-70
2022/10/28 07:00:23;;;;;;;34.08;18.20;;;;;;;12.78;100.00;101775.91;5110529;28;20028;-69
2022/10/28 07:02:51;;;;;;;31.10;18.30;;;;;;;12.81;100.00;101781.94;5110147;28;20035;-70
2022/10/28 07:05:16;;;;;;;34.20;19.00;;;;;;;12.76;100.00;101772.47;5106725;27;20066;-70
2022/10/28 07:07:41;;;;;;;33.13;17.85;;;;;;;12.80;100.00;101782.06;5110527;27;20050;-70
2022/10/28 07:10:07;;;;;;;37.65;19.80;;;;;;;12.83;100.00;101784.53;5106640;28;20085;-69
2022/10/28 07:12:32;;;;;;;35.67;18.60;;;;;;;12.82;100.00;101794.41;5111593;27;20035;-70
2022/10/28 07:14:58;;;;;;;36.88;19.63;;;;;;;12.85;100.00;101806.78;5111386;27;20024;-70
2022/10/28 07:17:23;;;;;;;34.08;17.90;;;;;;;12.76;100.00;101780.53;5109614;27;20036;-69
2022/10/28 07:19:49;;;;;;;40.75;19.42;;;;;;;12.81;100.00;101786.44;5114710;27;20062;-69
2022/10/28 07:22:14;;;;;;;36.47;20.08;;;;;;;12.91;100.00;101803.66;5107864;28;20477;-69
2022/10/28 07:24:40;;;;;;;36.13;19.13;;;;;;;12.91;100.00;101801.81;5109560;28;20124;-69
2022/10/28 07:27:06;;;;;;;30.83;17.67;;;;;;;12.94;100.00;101801.59;5109306;28;20084;-69
2022/10/28 07:29:32;;;;;;;31.05;17.33;;;;;;;12.96;100.00;101807.72;5109394;28;20489;-70
2022/10/28 07:31:57;;;;;;;29.25;17.98;;;;;;;12.99;100.00;101802.13;5108767;28;20023;-69
2022/10/28 07:34:23;;;;;;;30.17;17.02;;;;;;;13.01;100.00;101807.41;5109899;28;20027;-68
2022/10/28 07:36:50;;;;;;;31.15;17.40;;;;;;;13.04;100.00;101804.50;5108948;28;20031;-69
2022/10/28 07:39:15;;;;;;;30.15;17.70;;;;;;;13.04;100.00;101801.78;5108482;27;20031;-70
2022/10/28 07:41:41;;;;;;;29.02;17.63;;;;;;;13.03;100.00;101803.63;5107151;27;20050;-70
2022/10/28 07:44:06;;;;;;;34.10;18.88;;;;;;;13.09;100.00;101802.31;5109204;28;20086;-69
2022/10/28 07:46:32;;;;;;;30.52;17.75;;;;;;;13.10;100.00;101804.03;5110880;27;20063;-70
2022/10/28 07:48:58;;;;;;;28.75;17.05;;;;;;;13.11;100.00;101792.28;5108364;28;20475;-69
2022/10/28 07:51:24;;;;;;;28.75;17.40;;;;;;;13.12;100.00;101794.00;5107879;28;20023;-70
2022/10/28 07:53:50;;;;;;;29.75;17.23;;;;;;;13.04;100.00;101785.63;5109220;28;20032;-70
2022/10/28 07:56:15;;;;;;;29.70;17.05;;;;;;;13.13;100.00;101787.66;5107886;28;20041;-69
2022/10/28 07:58:43;;;;;;;31.73;16.70;;;;;;;13.17;100.00;101805.28;5109196;28;20390;-70
2022/10/28 08:01:12;;;;;;;28.30;17.13;;;;;;;13.18;100.00;101794.41;5107724;28;20039;-70
2022/10/28 08:03:38;;;;;;;26.65;16.15;;;;;;;13.20;100.00;101811.31;5107636;28;20031;-70
2022/10/28 08:06:10;;;;;;;27.45;15.88;;;;;;;13.22;100.00;101808.50;5108697;28;20052;-69
2022/10/28 08:08:36;;;;;;;24.65;15.82;;;;;;;13.21;100.00;101807.66;5107726;28;20118;-69
2022/10/28 08:11:17;;;;;;;27.58;16.40;;;;;;;13.19;100.00;101797.97;5108764;28;20090;-69
2022/10/28 08:13:43;;;;;;;24.45;14.88;;;;;;;13.26;100.00;101807.31;5107765;28;20370;-69
2022/10/28 08:16:09;;;;;;;22.17;14.07;;;;;;;13.22;100.00;101797.75;5107798;28;20020;-70
2022/10/28 08:18:36;;;;;;;25.85;14.77;;;;;;;13.28;100.00;101813.41;5108777;28;20115;-70
2022/10/28 08:21:03;;;;;;;25.15;15.75;;;;;;;13.31;100.00;101813.19;5108878;28;20371;-69
2022/10/28 08:23:29;;;;;;;25.33;16.27;;;;;;;13.30;100.00;101815.03;5109076;28;20046;-70
2022/10/28 08:25:54;;;;;;;30.77;16.92;;;;;;;13.33;100.00;101811.25;5108436;27;20031;-69
2022/10/28 08:28:21;;;;;;;31.95;17.00;;;;;;;13.34;100.00;101805.75;5108732;28;20039;-70
2022/10/28 08:30:47;;;;;;;29.50;16.90;;;;;;;13.35;100.00;101803.91;5108341;28;20031;-70
2022/10/28 08:33:13;;;;;;;24.83;15.48;;;;;;;13.39;100.00;101800.84;5107232;28;20394;-70
2022/10/28 08:35:39;;;;;;;28.02;16.33;;;;;;;13.42;100.00;101808.69;5106995;28;20032;-70
2022/10/28 08:38:05;;;;;;;30.35;18.25;;;;;;;13.45;100.00;101807.63;5106721;28;20039;-70
2022/10/28 08:40:48;;;;;;;31.73;19.10;;;;;;;13.45;100.00;101804.94;5107049;28;20063;-70
2022/10/28 08:44:02;;;;;;;30.98;19.60;;;;;;;13.49;100.00;101819.91;5107920;28;20035;-70
2022/10/28 08:46:52;;;;;;;32.10;19.25;;;;;;;13.50;100.00;101814.38;5030453;28;20039;-69
2022/10/28 08:49:20;;;;;;;32.78;19.08;;;;;;;13.50;100.00;101810.81;5106257;28;20035;-70
2022/10/28 08:52:15;;;;;;;31.77;18.52;;;;;;;13.54;100.00;101815.88;5106559;28;20050;-70
2022/10/28 08:54:52;;;;;;;;;;;;;;;13.57;100.00;101822.84;5106567;28;20066;-70
2022/10/28 08:57:44;;;;;;;30.33;19.20;;;;;;;13.58;100.00;101822.72;5106370;28;20010;-70
2022/10/28 09:00:36;;;;;;;34.90;20.80;;;;;;;13.57;100.00;101822.84;5055216;27;20059;-70
2022/10/28 09:03:11;;;;;;;29.67;19.65;;;;;;;13.62;100.00;101820.69;5100842;28;20035;-70
2022/10/28 09:05:46;;;;;;;27.63;18.27;;;;;;;13.65;100.00;101818.59;5105708;28;20052;-71
2022/10/28 09:08:21;;;;;;;31.85;19.90;;;;;;;13.67;100.00;101830.13;5108559;27;20063;-71
2022/10/28 09:10:58;;;;;;;33.78;21.73;;;;;;;13.67;100.00;101832.81;5107908;28;20047;-67
2022/10/28 09:13:46;;;;;;;28.15;19.58;;;;;;;13.70;100.00;101832.59;5108316;28;20035;-67
2022/10/28 09:16:27;;;;;;;31.67;20.75;;;;;;;13.73;100.00;101836.03;5108346;28;20054;-67
2022/10/28 09:18:55;;;;;;;34.75;20.90;;;;;;;13.68;100.00;101826.44;5108074;28;20410;-67
2022/10/28 09:21:53;;;;;;;35.67;20.75;;;;;;;13.77;100.00;101832.13;5108053;28;20032;-67
2022/10/28 09:24:41;;;;;;;32.95;20.33;;;;;;;13.81;100.00;101828.19;5108289;28;20418;-67
2022/10/28 09:27:20;;;;;;;28.85;19.58;;;;;;;13.85;100.00;101821.59;5107114;28;20092;-67
2022/10/28 09:29:52;;;;;;;31.35;19.88;;;;;;;13.84;100.00;101827.97;5106416;28;20043;-67
2022/10/28 09:32:34;;;;;;;31.42;20.35;;;;;;;13.85;100.00;101825.16;5106735;28;20607;-67
2022/10/28 09:35:10;;;;;;;28.90;19.85;;;;;;;13.86;100.00;101813.38;5106988;28;20425;-67
2022/10/28 09:37:55;;;;;;;34.92;21.67;;;;;;;13.90;100.00;101822.97;5107882;28;20028;-67
2022/10/28 09:40:24;;;;;;;30.67;20.08;;;;;;;13.88;100.00;101806.03;5108180;28;20059;-67
2022/10/28 09:43:08;;;;;;;33.53;20.55;;;;;;;13.94;100.00;101808.25;5106717;28;20043;-67
2022/10/28 09:45:36;;;;;;;29.90;19.88;;;;;;;13.84;100.00;101780.28;5107764;28;20058;-67
2022/10/28 09:48:16;;;;;;;29.10;20.90;;;;;;;14.01;100.00;101800.53;5108185;28;20548;-67
2022/10/28 09:50:43;;;;;;;29.88;20.52;;;;;;;14.05;100.00;101805.56;5107836;28;20024;-67
2022/10/28 09:53:25;;;;;;;29.98;20.35;;;;;;;14.01;100.00;101801.41;5107230;28;20061;-67
2022/10/28 09:55:51;;;;;;;33.08;21.02;;;;;;;14.04;100.00;101795.75;5107617;28;20032;-67
2022/10/28 09:58:17;;;;;;;32.10;20.92;;;;;;;14.10;100.00;101800.69;5107855;28;20034;-67
2022/10/28 10:00:43;;;;;;;31.98;21.40;;;;;;;14.05;100.00;101788.50;5107725;28;21234;-67
2022/10/28 10:03:09;;;;;;;34.35;21.60;;;;;;;13.97;100.00;101772.94;5107477;28;20026;-67
2022/10/28 10:05:41;;;;;;;27.58;20.33;;;;;;;14.07;100.00;101782.03;5107439;28;20122;-67
2022/10/28 10:08:10;;;;;;;30.60;21.25;;;;;;;14.25;100.00;101801.34;5107576;28;20050;-67
2022/10/28 10:10:51;;;;;;;30.55;21.70;;;;;;;14.25;100.00;101801.34;5106086;28;20027;-67
2022/10/28 10:13:21;;;;;;;32.13;22.23;;;;;;;14.25;100.00;101802.19;5107738;28;20394;-67
2022/10/28 10:15:54;;;;;;;32.63;21.67;;;;;;;14.30;100.00;101804.50;5107368;28;20514;-67
2022/10/28 10:18:27;;;;;;;32.97;22.55;;;;;;;14.27;100.00;101794.81;5107669;28;20103;-67
2022/10/28 10:20:57;;;;;;;32.78;22.27;;;;;;;14.25;100.00;101790.53;5107250;28;20106;-67
2022/10/28 10:23:36;;;;;;;33.70;23.23;;;;;;;14.32;100.00;101803.41;5107462;28;20118;-67
2022/10/28 10:26:06;;;;;;;33.05;21.65;;;;;;;14.34;100.00;101792.47;5107654;28;20784;-70
2022/10/28 10:28:35;;;;;;;36.03;22.80;;;;;;;14.48;100.00;101797.66;5108103;28;20106;-70
2022/10/28 10:31:04;;;;;;;35.92;23.95;;;;;;;14.27;100.00;101767.84;5107791;28;20028;-70
2022/10/28 10:33:36;;;;;;;35.55;22.83;;;;;;;14.40;100.00;101800.97;5107996;28;20490;-70
2022/10/28 10:36:19;;;;;;;35.03;23.80;;;;;;;14.42;100.00;101796.31;5107808;28;20023;-70
2022/10/28 10:38:48;;;;;;;38.60;24.60;;;;;;;14.41;100.00;101794.56;5106241;28;20421;-70
2022/10/28 10:41:34;;;;;;;40.22;24.63;;;;;;;14.39;100.00;101787.59;5107881;28;20019;-70
2022/10/28 10:43:59;;;;;;;39.17;25.02;;;;;;;14.42;100.00;101784.66;5106217;28;20521;-70
2022/10/28 10:46:26;;;;;;;41.40;25.83;;;;;;;14.43;100.00;101778.25;5107598;28;20035;-70
2022/10/28 10:49:15;;;;;;;39.63;25.33;;;;;;;14.47;100.00;101777.88;5107502;28;20027;-70
2022/10/28 10:51:50;;;;;;;37.00;24.75;;;;;;;14.50;100.00;101774.06;5107656;28;20036;-70
2022/10/28 10:54:16;;;;;;;37.72;25.15;;;;;;;14.50;100.00;101784.88;5107132;28;20027;-70
2022/10/28 10:56:42;;;;;;;42.15;25.27;;;;;;;14.49;100.00;101777.75;5105106;28;20084;-70
2022/10/28 10:59:16;;;;;;;38.33;25.42;;;;;;;14.49;100.00;101789.44;5106075;28;20031;-70
2022/10/28 11:01:42;;;;;;;35.80;25.00;;;;;;;14.43;100.00;101768.31;5106397;28;20028;-70
2022/10/28 11:04:16;;;;;;;36.50;24.80;;;;;;;14.56;100.00;101781.69;5106222;28;20403;-70
2022/10/28 11:06:43;;;;;;;38.38;25.67;;;;;;;14.56;100.00;101779.84;5110166;28;20471;-70
2022/10/28 11:09:23;;;;;;;38.25;24.75;;;;;;;14.60;100.00;101777.75;5109968;28;20518;-70
2022/10/28 11:11:54;;;;;;;33.25;23.88;;;;;;;14.59;100.00;101776.91;5109558;28;20024;-70
2022/10/28 11:14:24;;;;;;;36.72;24.40;;;;;;;14.62;100.00;101776.66;5108982;28;20038;-69
2022/10/28 11:16:53;;;;;;;36.45;25.38;;;;;;;14.68;100.00;101761.78;5108429;28;20769;-70